sensor_id;sensor_type;location;lat;lon;timestamp;P1;durP1;ratioP1;P2;durP2;ratioP2
70866;SDS011;58487;53.474;49.470;2023-05-29T00:01:25;7.75;;;3.70;;
70866;SDS011;58487;53.474;49.470;2023-05-29T00:03:51;8.07;;;3.80;;
70866;SDS011;58487;53.474;49.470;2023-05-29T00:06:17;8.48;;;3.70;;
70866;SDS011;58487;53.474;49.470;2023-05-29T00:08:47;6.53;;;3.78;;
70866;SDS011;58487;53.474;49.470;2023-05-29T00:11:14;6.53;;;3.78;;
70866;SDS011;58487;53.474;49.470;2023-05-29T00:13:40;6.47;;;3.78;;
70866;SDS011;58487;53.474;49.470;2023-05-29T00:16:06;9.07;;;3.93;;
70866;SDS011;58487;53.474;49.470;2023-05-29T00:18:35;8.02;;;4.20;;
70866;SDS011;58487;53.474;49.470;2023-05-29T00:21:01;7.97;;;3.72;;
70866;SDS011;58487;53.474;49.470;2023-05-29T00:23:28;7.30;;;4.00;;
70866;SDS011;58487;53.474;49.470;2023-05-29T00:25:54;7.97;;;4.40;;
70866;SDS011;58487;53.474;49.470;2023-05-29T00:28:20;6.93;;;3.97;;
70866;SDS011;58487;53.474;49.470;2023-05-29T00:30:46;6.80;;;4.10;;
70866;SDS011;58487;53.474;49.470;2023-05-29T00:33:12;6.90;;;4.25;;
70866;SDS011;58487;53.474;49.470;2023-05-29T00:35:38;7.63;;;4.40;;
70866;SDS011;58487;53.474;49.470;2023-05-29T00:38:04;7.10;;;4.22;;
70866;SDS011;58487;53.474;49.470;2023-05-29T00:40:30;7.70;;;4.50;;
70866;SDS011;58487;53.474;49.470;2023-05-29T00:42:56;9.07;;;4.50;;
70866;SDS011;58487;53.474;49.470;2023-05-29T00:45:22;9.45;;;4.80;;
70866;SDS011;58487;53.474;49.470;2023-05-29T00:47:48;6.93;;;4.07;;
70866;SDS011;58487;53.474;49.470;2023-05-29T00:50:19;15.50;;;4.97;;
70866;SDS011;58487;53.474;49.470;2023-05-29T00:52:47;7.80;;;4.50;;
70866;SDS011;58487;53.474;49.470;2023-05-29T00:55:13;7.55;;;4.45;;
70866;SDS011;58487;53.474;49.470;2023-05-29T00:57:39;10.77;;;4.90;;
70866;SDS011;58487;53.474;49.470;2023-05-29T01:00:06;9.88;;;5.82;;
70866;SDS011;58487;53.474;49.470;2023-05-29T01:02:42;8.65;;;5.50;;
70866;SDS011;58487;53.474;49.470;2023-05-29T01:05:13;7.33;;;4.80;;
70866;SDS011;58487;53.474;49.470;2023-05-29T01:07:43;8.05;;;4.38;;
70866;SDS011;58487;53.474;49.470;2023-05-29T01:10:10;8.52;;;4.60;;
70866;SDS011;58487;53.474;49.470;2023-05-29T01:12:50;7.93;;;4.60;;
70866;SDS011;58487;53.474;49.470;2023-05-29T01:18:23;7.63;;;4.60;;
70866;SDS011;58487;53.474;49.470;2023-05-29T01:21:06;9.90;;;4.78;;
70866;SDS011;58487;53.474;49.470;2023-05-29T01:23:58;8.57;;;4.90;;
70866;SDS011;58487;53.474;49.470;2023-05-29T01:29:21;8.48;;;5.00;;
70866;SDS011;58487;53.474;49.470;2023-05-29T01:31:50;8.90;;;4.80;;
70866;SDS011;58487;53.474;49.470;2023-05-29T01:34:18;8.15;;;4.45;;
70866;SDS011;58487;53.474;49.470;2023-05-29T01:36:45;7.00;;;4.30;;
70866;SDS011;58487;53.474;49.470;2023-05-29T01:39:14;7.75;;;4.80;;
70866;SDS011;58487;53.474;49.470;2023-05-29T01:41:41;9.15;;;5.20;;
70866;SDS011;58487;53.474;49.470;2023-05-29T01:44:09;7.53;;;5.00;;
70866;SDS011;58487;53.474;49.470;2023-05-29T01:46:37;8.70;;;4.75;;
70866;SDS011;58487;53.474;49.470;2023-05-29T01:49:04;9.45;;;5.00;;
70866;SDS011;58487;53.474;49.470;2023-05-29T01:51:30;8.38;;;4.90;;
70866;SDS011;58487;53.474;49.470;2023-05-29T01:53:58;7.72;;;4.85;;
70866;SDS011;58487;53.474;49.470;2023-05-29T01:56:28;8.03;;;4.70;;
70866;SDS011;58487;53.474;49.470;2023-05-29T01:58:55;8.75;;;5.05;;
70866;SDS011;58487;53.474;49.470;2023-05-29T02:01:22;8.90;;;4.97;;
70866;SDS011;58487;53.474;49.470;2023-05-29T02:03:48;8.55;;;5.13;;
70866;SDS011;58487;53.474;49.470;2023-05-29T02:06:16;8.63;;;5.00;;
70866;SDS011;58487;53.474;49.470;2023-05-29T02:08:42;8.17;;;5.07;;
70866;SDS011;58487;53.474;49.470;2023-05-29T02:11:09;8.07;;;5.10;;
70866;SDS011;58487;53.474;49.470;2023-05-29T02:13:35;9.50;;;5.20;;
70866;SDS011;58487;53.474;49.470;2023-05-29T02:16:01;9.30;;;5.22;;
70866;SDS011;58487;53.474;49.470;2023-05-29T02:18:27;9.45;;;5.28;;
70866;SDS011;58487;53.474;49.470;2023-05-29T02:20:53;9.57;;;5.77;;
70866;SDS011;58487;53.474;49.470;2023-05-29T02:23:19;8.60;;;5.38;;
70866;SDS011;58487;53.474;49.470;2023-05-29T02:25:46;9.20;;;5.47;;
70866;SDS011;58487;53.474;49.470;2023-05-29T02:28:12;8.02;;;5.38;;
70866;SDS011;58487;53.474;49.470;2023-05-29T02:30:38;10.73;;;6.00;;
70866;SDS011;58487;53.474;49.470;2023-05-29T02:33:04;9.17;;;5.37;;
70866;SDS011;58487;53.474;49.470;2023-05-29T02:35:31;8.77;;;5.40;;
70866;SDS011;58487;53.474;49.470;2023-05-29T02:37:57;10.00;;;5.78;;
70866;SDS011;58487;53.474;49.470;2023-05-29T02:40:23;8.68;;;5.53;;
70866;SDS011;58487;53.474;49.470;2023-05-29T02:42:50;10.98;;;6.07;;
70866;SDS011;58487;53.474;49.470;2023-05-29T02:45:16;10.77;;;5.83;;
70866;SDS011;58487;53.474;49.470;2023-05-29T02:47:42;10.77;;;6.20;;
70866;SDS011;58487;53.474;49.470;2023-05-29T02:50:09;11.77;;;6.03;;
70866;SDS011;58487;53.474;49.470;2023-05-29T02:52:35;10.30;;;6.47;;
70866;SDS011;58487;53.474;49.470;2023-05-29T02:55:05;9.38;;;5.75;;
70866;SDS011;58487;53.474;49.470;2023-05-29T02:57:32;10.40;;;6.03;;
70866;SDS011;58487;53.474;49.470;2023-05-29T02:59:58;11.10;;;6.47;;
70866;SDS011;58487;53.474;49.470;2023-05-29T03:02:24;9.23;;;6.15;;
70866;SDS011;58487;53.474;49.470;2023-05-29T03:04:51;9.48;;;6.00;;
70866;SDS011;58487;53.474;49.470;2023-05-29T03:07:19;10.00;;;6.25;;
70866;SDS011;58487;53.474;49.470;2023-05-29T03:09:45;9.17;;;6.00;;
70866;SDS011;58487;53.474;49.470;2023-05-29T03:12:11;12.25;;;6.07;;
70866;SDS011;58487;53.474;49.470;2023-05-29T03:14:37;8.82;;;5.60;;
70866;SDS011;58487;53.474;49.470;2023-05-29T03:17:04;8.00;;;5.40;;
70866;SDS011;58487;53.474;49.470;2023-05-29T03:19:31;8.15;;;5.10;;
70866;SDS011;58487;53.474;49.470;2023-05-29T03:21:57;9.70;;;5.80;;
70866;SDS011;58487;53.474;49.470;2023-05-29T03:24:23;9.10;;;5.75;;
70866;SDS011;58487;53.474;49.470;2023-05-29T03:26:49;8.77;;;5.75;;
70866;SDS011;58487;53.474;49.470;2023-05-29T03:29:16;8.38;;;5.38;;
70866;SDS011;58487;53.474;49.470;2023-05-29T03:31:42;8.90;;;5.90;;
70866;SDS011;58487;53.474;49.470;2023-05-29T03:34:08;10.53;;;6.17;;
70866;SDS011;58487;53.474;49.470;2023-05-29T03:36:34;10.57;;;5.70;;
70866;SDS011;58487;53.474;49.470;2023-05-29T03:39:04;10.68;;;6.20;;
70866;SDS011;58487;53.474;49.470;2023-05-29T03:41:31;9.32;;;6.32;;
70866;SDS011;58487;53.474;49.470;2023-05-29T03:43:57;9.30;;;5.72;;
70866;SDS011;58487;53.474;49.470;2023-05-29T03:46:24;10.77;;;5.87;;
70866;SDS011;58487;53.474;49.470;2023-05-29T03:48:50;9.68;;;5.97;;
70866;SDS011;58487;53.474;49.470;2023-05-29T03:51:16;9.50;;;5.97;;
70866;SDS011;58487;53.474;49.470;2023-05-29T03:53:42;9.35;;;6.00;;
70866;SDS011;58487;53.474;49.470;2023-05-29T03:56:08;9.82;;;6.38;;
70866;SDS011;58487;53.474;49.470;2023-05-29T03:58:34;9.60;;;6.07;;
70866;SDS011;58487;53.474;49.470;2023-05-29T04:01:01;10.02;;;6.60;;
70866;SDS011;58487;53.474;49.470;2023-05-29T04:03:28;10.20;;;6.75;;
70866;SDS011;58487;53.474;49.470;2023-05-29T04:05:55;9.82;;;6.38;;
70866;SDS011;58487;53.474;49.470;2023-05-29T04:08:21;10.77;;;6.97;;
70866;SDS011;58487;53.474;49.470;2023-05-29T04:10:47;10.60;;;6.53;;
70866;SDS011;58487;53.474;49.470;2023-05-29T04:13:13;9.57;;;6.38;;
70866;SDS011;58487;53.474;49.470;2023-05-29T04:15:40;10.02;;;6.63;;
70866;SDS011;58487;53.474;49.470;2023-05-29T04:18:07;10.88;;;6.93;;
70866;SDS011;58487;53.474;49.470;2023-05-29T04:20:33;10.07;;;6.57;;
70866;SDS011;58487;53.474;49.470;2023-05-29T04:22:59;12.27;;;6.87;;
70866;SDS011;58487;53.474;49.470;2023-05-29T04:25:25;9.60;;;6.55;;
70866;SDS011;58487;53.474;49.470;2023-05-29T04:27:51;9.85;;;6.68;;
70866;SDS011;58487;53.474;49.470;2023-05-29T04:30:17;10.48;;;6.78;;
70866;SDS011;58487;53.474;49.470;2023-05-29T04:32:43;11.13;;;6.93;;
70866;SDS011;58487;53.474;49.470;2023-05-29T04:35:10;10.70;;;6.90;;
70866;SDS011;58487;53.474;49.470;2023-05-29T04:37:36;10.38;;;6.75;;
70866;SDS011;58487;53.474;49.470;2023-05-29T04:42:38;11.70;;;7.47;;
70866;SDS011;58487;53.474;49.470;2023-05-29T04:45:07;10.77;;;7.43;;
70866;SDS011;58487;53.474;49.470;2023-05-29T04:47:36;12.60;;;7.53;;
70866;SDS011;58487;53.474;49.470;2023-05-29T04:50:10;15.23;;;9.25;;
70866;SDS011;58487;53.474;49.470;2023-05-29T04:52:37;12.07;;;7.43;;
70866;SDS011;58487;53.474;49.470;2023-05-29T04:55:03;12.77;;;7.47;;
70866;SDS011;58487;53.474;49.470;2023-05-29T04:57:30;18.90;;;11.20;;
70866;SDS011;58487;53.474;49.470;2023-05-29T04:59:56;60.93;;;31.60;;
70866;SDS011;58487;53.474;49.470;2023-05-29T05:02:22;25.75;;;16.73;;
70866;SDS011;58487;53.474;49.470;2023-05-29T05:04:48;15.68;;;8.45;;
70866;SDS011;58487;53.474;49.470;2023-05-29T05:07:15;12.65;;;7.53;;
70866;SDS011;58487;53.474;49.470;2023-05-29T05:09:42;11.38;;;7.30;;
70866;SDS011;58487;53.474;49.470;2023-05-29T05:12:08;12.07;;;7.07;;
70866;SDS011;58487;53.474;49.470;2023-05-29T05:14:34;10.73;;;7.05;;
70866;SDS011;58487;53.474;49.470;2023-05-29T05:17:00;15.55;;;7.35;;
70866;SDS011;58487;53.474;49.470;2023-05-29T05:19:26;15.60;;;10.02;;
70866;SDS011;58487;53.474;49.470;2023-05-29T05:21:52;10.40;;;7.00;;
70866;SDS011;58487;53.474;49.470;2023-05-29T05:24:18;10.43;;;7.50;;
70866;SDS011;58487;53.474;49.470;2023-05-29T05:26:45;11.95;;;7.20;;
70866;SDS011;58487;53.474;49.470;2023-05-29T05:29:11;10.18;;;7.00;;
70866;SDS011;58487;53.474;49.470;2023-05-29T05:31:37;10.90;;;7.13;;
70866;SDS011;58487;53.474;49.470;2023-05-29T05:34:03;13.40;;;7.65;;
70866;SDS011;58487;53.474;49.470;2023-05-29T05:36:29;11.17;;;6.87;;
70866;SDS011;58487;53.474;49.470;2023-05-29T05:38:56;9.98;;;6.80;;
70866;SDS011;58487;53.474;49.470;2023-05-29T05:41:22;11.25;;;6.93;;
70866;SDS011;58487;53.474;49.470;2023-05-29T05:43:49;10.23;;;6.63;;
70866;SDS011;58487;53.474;49.470;2023-05-29T05:46:15;11.45;;;7.47;;
70866;SDS011;58487;53.474;49.470;2023-05-29T05:48:43;11.63;;;7.40;;
70866;SDS011;58487;53.474;49.470;2023-05-29T05:51:09;11.48;;;7.30;;
70866;SDS011;58487;53.474;49.470;2023-05-29T05:53:36;12.15;;;7.15;;
70866;SDS011;58487;53.474;49.470;2023-05-29T05:56:03;10.27;;;6.40;;
70866;SDS011;58487;53.474;49.470;2023-05-29T05:58:29;9.90;;;6.78;;
70866;SDS011;58487;53.474;49.470;2023-05-29T06:00:55;9.03;;;5.30;;
70866;SDS011;58487;53.474;49.470;2023-05-29T06:03:22;8.43;;;5.47;;
70866;SDS011;58487;53.474;49.470;2023-05-29T06:05:48;10.27;;;5.88;;
70866;SDS011;58487;53.474;49.470;2023-05-29T06:08:16;9.20;;;6.35;;
70866;SDS011;58487;53.474;49.470;2023-05-29T06:10:42;10.05;;;6.18;;
70866;SDS011;58487;53.474;49.470;2023-05-29T06:13:08;8.43;;;4.80;;
70866;SDS011;58487;53.474;49.470;2023-05-29T06:15:34;6.97;;;4.90;;
70866;SDS011;58487;53.474;49.470;2023-05-29T06:18:01;11.93;;;8.32;;
70866;SDS011;58487;53.474;49.470;2023-05-29T06:20:28;19.50;;;12.43;;
70866;SDS011;58487;53.474;49.470;2023-05-29T06:22:55;8.95;;;5.70;;
70866;SDS011;58487;53.474;49.470;2023-05-29T06:25:21;8.73;;;5.50;;
70866;SDS011;58487;53.474;49.470;2023-05-29T06:27:47;16.48;;;6.10;;
70866;SDS011;58487;53.474;49.470;2023-05-29T06:30:13;11.07;;;5.78;;
70866;SDS011;58487;53.474;49.470;2023-05-29T06:32:39;8.30;;;5.55;;
70866;SDS011;58487;53.474;49.470;2023-05-29T06:35:05;12.60;;;6.05;;
70866;SDS011;58487;53.474;49.470;2023-05-29T06:37:32;8.63;;;5.70;;
70866;SDS011;58487;53.474;49.470;2023-05-29T06:39:58;8.90;;;5.70;;
70866;SDS011;58487;53.474;49.470;2023-05-29T06:42:25;8.80;;;5.88;;
70866;SDS011;58487;53.474;49.470;2023-05-29T06:44:51;10.95;;;6.20;;
70866;SDS011;58487;53.474;49.470;2023-05-29T06:47:17;10.00;;;6.28;;
70866;SDS011;58487;53.474;49.470;2023-05-29T06:49:43;12.73;;;6.33;;
70866;SDS011;58487;53.474;49.470;2023-05-29T06:52:11;8.98;;;5.80;;
70866;SDS011;58487;53.474;49.470;2023-05-29T06:54:37;10.00;;;6.40;;
70866;SDS011;58487;53.474;49.470;2023-05-29T06:57:03;10.52;;;5.80;;
70866;SDS011;58487;53.474;49.470;2023-05-29T06:59:29;10.85;;;6.00;;
70866;SDS011;58487;53.474;49.470;2023-05-29T07:01:55;9.50;;;5.40;;
70866;SDS011;58487;53.474;49.470;2023-05-29T07:04:21;8.95;;;5.03;;
70866;SDS011;58487;53.474;49.470;2023-05-29T07:06:47;7.57;;;5.15;;
70866;SDS011;58487;53.474;49.470;2023-05-29T07:09:13;10.20;;;4.70;;
70866;SDS011;58487;53.474;49.470;2023-05-29T07:11:39;8.48;;;4.85;;
70866;SDS011;58487;53.474;49.470;2023-05-29T07:14:05;8.83;;;4.70;;
70866;SDS011;58487;53.474;49.470;2023-05-29T07:16:32;8.75;;;5.30;;
70866;SDS011;58487;53.474;49.470;2023-05-29T07:18:58;8.82;;;5.57;;
70866;SDS011;58487;53.474;49.470;2023-05-29T07:21:24;12.35;;;5.32;;
70866;SDS011;58487;53.474;49.470;2023-05-29T07:23:50;8.05;;;4.63;;
70866;SDS011;58487;53.474;49.470;2023-05-29T07:26:16;7.40;;;4.50;;
70866;SDS011;58487;53.474;49.470;2023-05-29T07:28:42;7.03;;;4.60;;
70866;SDS011;58487;53.474;49.470;2023-05-29T07:31:08;7.18;;;4.68;;
70866;SDS011;58487;53.474;49.470;2023-05-29T07:33:34;8.35;;;5.10;;
70866;SDS011;58487;53.474;49.470;2023-05-29T07:36:00;7.65;;;4.50;;
70866;SDS011;58487;53.474;49.470;2023-05-29T07:38:27;6.47;;;4.03;;
70866;SDS011;58487;53.474;49.470;2023-05-29T07:40:53;7.60;;;5.07;;
70866;SDS011;58487;53.474;49.470;2023-05-29T07:43:19;7.32;;;4.93;;
70866;SDS011;58487;53.474;49.470;2023-05-29T07:45:45;8.35;;;5.07;;
70866;SDS011;58487;53.474;49.470;2023-05-29T07:48:11;8.80;;;4.80;;
70866;SDS011;58487;53.474;49.470;2023-05-29T07:50:37;7.50;;;3.80;;
70866;SDS011;58487;53.474;49.470;2023-05-29T07:53:03;7.55;;;3.85;;
70866;SDS011;58487;53.474;49.470;2023-05-29T07:55:29;11.68;;;4.20;;
70866;SDS011;58487;53.474;49.470;2023-05-29T07:57:55;6.43;;;3.72;;
70866;SDS011;58487;53.474;49.470;2023-05-29T08:00:21;5.70;;;3.25;;
70866;SDS011;58487;53.474;49.470;2023-05-29T08:02:47;8.37;;;3.60;;
70866;SDS011;58487;53.474;49.470;2023-05-29T08:05:13;6.38;;;3.67;;
70866;SDS011;58487;53.474;49.470;2023-05-29T08:07:40;6.60;;;3.60;;
70866;SDS011;58487;53.474;49.470;2023-05-29T08:10:07;7.35;;;3.22;;
70866;SDS011;58487;53.474;49.470;2023-05-29T08:12:33;8.50;;;3.38;;
70866;SDS011;58487;53.474;49.470;2023-05-29T08:15:01;8.80;;;3.20;;
70866;SDS011;58487;53.474;49.470;2023-05-29T08:17:28;4.97;;;2.97;;
70866;SDS011;58487;53.474;49.470;2023-05-29T08:19:54;6.40;;;3.50;;
70866;SDS011;58487;53.474;49.470;2023-05-29T08:22:20;6.03;;;3.60;;
70866;SDS011;58487;53.474;49.470;2023-05-29T08:24:54;7.38;;;3.60;;
70866;SDS011;58487;53.474;49.470;2023-05-29T08:27:20;5.80;;;3.10;;
70866;SDS011;58487;53.474;49.470;2023-05-29T08:29:46;6.15;;;3.30;;
70866;SDS011;58487;53.474;49.470;2023-05-29T08:32:12;8.18;;;3.33;;
70866;SDS011;58487;53.474;49.470;2023-05-29T08:34:38;9.18;;;3.42;;
70866;SDS011;58487;53.474;49.470;2023-05-29T08:37:04;7.00;;;3.60;;
70866;SDS011;58487;53.474;49.470;2023-05-29T08:39:30;7.63;;;3.40;;
70866;SDS011;58487;53.474;49.470;2023-05-29T08:44:55;6.20;;;3.33;;
70866;SDS011;58487;53.474;49.470;2023-05-29T08:47:26;6.47;;;3.75;;
70866;SDS011;58487;53.474;49.470;2023-05-29T08:49:53;9.40;;;3.60;;
70866;SDS011;58487;53.474;49.470;2023-05-29T08:52:22;6.03;;;3.50;;
70866;SDS011;58487;53.474;49.470;2023-05-29T08:54:50;6.75;;;3.40;;
70866;SDS011;58487;53.474;49.470;2023-05-29T08:57:17;6.40;;;3.80;;
70866;SDS011;58487;53.474;49.470;2023-05-29T08:59:46;7.65;;;3.75;;
70866;SDS011;58487;53.474;49.470;2023-05-29T09:02:14;7.03;;;3.63;;
70866;SDS011;58487;53.474;49.470;2023-05-29T09:04:41;6.43;;;3.67;;
70866;SDS011;58487;53.474;49.470;2023-05-29T09:07:11;7.22;;;3.55;;
70866;SDS011;58487;53.474;49.470;2023-05-29T09:09:38;7.25;;;3.70;;
70866;SDS011;58487;53.474;49.470;2023-05-29T09:12:04;7.13;;;3.97;;
70866;SDS011;58487;53.474;49.470;2023-05-29T09:14:43;6.28;;;3.67;;
70866;SDS011;58487;53.474;49.470;2023-05-29T09:17:10;6.23;;;3.40;;
70866;SDS011;58487;53.474;49.470;2023-05-29T09:19:38;14.65;;;7.28;;
70866;SDS011;58487;53.474;49.470;2023-05-29T09:22:06;8.60;;;4.32;;
70866;SDS011;58487;53.474;49.470;2023-05-29T09:24:36;7.15;;;3.65;;
70866;SDS011;58487;53.474;49.470;2023-05-29T09:27:03;7.93;;;3.60;;
70866;SDS011;58487;53.474;49.470;2023-05-29T09:29:33;7.40;;;3.40;;
70866;SDS011;58487;53.474;49.470;2023-05-29T09:32:09;8.30;;;3.88;;
70866;SDS011;58487;53.474;49.470;2023-05-29T09:34:36;7.40;;;4.18;;
70866;SDS011;58487;53.474;49.470;2023-05-29T09:37:04;6.80;;;4.07;;
70866;SDS011;58487;53.474;49.470;2023-05-29T09:39:47;6.38;;;3.80;;
70866;SDS011;58487;53.474;49.470;2023-05-29T09:42:14;6.63;;;3.67;;
70866;SDS011;58487;53.474;49.470;2023-05-29T09:44:43;9.30;;;4.10;;
70866;SDS011;58487;53.474;49.470;2023-05-29T09:47:16;8.02;;;4.53;;
70866;SDS011;58487;53.474;49.470;2023-05-29T09:49:43;8.07;;;4.28;;
70866;SDS011;58487;53.474;49.470;2023-05-29T09:52:11;7.25;;;4.10;;
70866;SDS011;58487;53.474;49.470;2023-05-29T09:54:41;5.82;;;3.83;;
70866;SDS011;58487;53.474;49.470;2023-05-29T09:57:12;7.73;;;3.80;;
70866;SDS011;58487;53.474;49.470;2023-05-29T09:59:41;6.40;;;3.90;;
70866;SDS011;58487;53.474;49.470;2023-05-29T10:02:10;7.60;;;5.47;;
70866;SDS011;58487;53.474;49.470;2023-05-29T10:04:38;6.00;;;3.90;;
70866;SDS011;58487;53.474;49.470;2023-05-29T10:07:10;6.78;;;4.00;;
70866;SDS011;58487;53.474;49.470;2023-05-29T10:09:44;7.85;;;3.75;;
70866;SDS011;58487;53.474;49.470;2023-05-29T10:12:12;10.13;;;4.20;;
70866;SDS011;58487;53.474;49.470;2023-05-29T10:14:42;6.47;;;3.92;;
70866;SDS011;58487;53.474;49.470;2023-05-29T10:17:08;6.60;;;3.92;;
70866;SDS011;58487;53.474;49.470;2023-05-29T10:19:38;11.30;;;4.57;;
70866;SDS011;58487;53.474;49.470;2023-05-29T10:22:04;7.07;;;4.40;;
70866;SDS011;58487;53.474;49.470;2023-05-29T10:24:32;7.90;;;4.45;;
70866;SDS011;58487;53.474;49.470;2023-05-29T10:27:02;7.53;;;4.30;;
70866;SDS011;58487;53.474;49.470;2023-05-29T10:29:31;6.05;;;4.10;;
70866;SDS011;58487;53.474;49.470;2023-05-29T10:39:52;6.97;;;4.30;;
70866;SDS011;58487;53.474;49.470;2023-05-29T10:50:36;9.95;;;4.30;;
70866;SDS011;58487;53.474;49.470;2023-05-29T10:53:07;7.70;;;4.03;;
70866;SDS011;58487;53.474;49.470;2023-05-29T10:55:37;8.18;;;4.35;;
70866;SDS011;58487;53.474;49.470;2023-05-29T10:58:14;7.47;;;4.20;;
70866;SDS011;58487;53.474;49.470;2023-05-29T11:00:44;8.80;;;4.23;;
70866;SDS011;58487;53.474;49.470;2023-05-29T11:03:19;6.60;;;4.30;;
70866;SDS011;58487;53.474;49.470;2023-05-29T11:06:22;7.47;;;4.30;;
70866;SDS011;58487;53.474;49.470;2023-05-29T11:08:55;7.35;;;4.53;;
70866;SDS011;58487;53.474;49.470;2023-05-29T11:14:03;8.88;;;4.78;;
70866;SDS011;58487;53.474;49.470;2023-05-29T11:18:58;6.65;;;4.78;;
70866;SDS011;58487;53.474;49.470;2023-05-29T11:24:29;11.25;;;4.63;;
70866;SDS011;58487;53.474;49.470;2023-05-29T11:26:55;8.43;;;4.50;;
70866;SDS011;58487;53.474;49.470;2023-05-29T11:29:24;6.40;;;4.70;;
70866;SDS011;58487;53.474;49.470;2023-05-29T11:32:02;6.63;;;4.60;;
70866;SDS011;58487;53.474;49.470;2023-05-29T11:34:35;7.40;;;4.60;;
70866;SDS011;58487;53.474;49.470;2023-05-29T11:37:05;11.13;;;4.80;;
70866;SDS011;58487;53.474;49.470;2023-05-29T11:39:35;8.20;;;4.72;;
70866;SDS011;58487;53.474;49.470;2023-05-29T11:42:02;7.82;;;4.60;;
70866;SDS011;58487;53.474;49.470;2023-05-29T11:44:29;8.32;;;4.50;;
70866;SDS011;58487;53.474;49.470;2023-05-29T11:47:02;7.10;;;4.60;;
70866;SDS011;58487;53.474;49.470;2023-05-29T11:49:33;12.95;;;5.22;;
70866;SDS011;58487;53.474;49.470;2023-05-29T11:52:07;9.73;;;5.10;;
70866;SDS011;58487;53.474;49.470;2023-05-29T11:54:33;9.87;;;4.90;;
70866;SDS011;58487;53.474;49.470;2023-05-29T11:57:02;9.20;;;4.50;;
70866;SDS011;58487;53.474;49.470;2023-05-29T11:59:31;11.88;;;5.07;;
70866;SDS011;58487;53.474;49.470;2023-05-29T12:01:59;6.97;;;4.88;;
70866;SDS011;58487;53.474;49.470;2023-05-29T12:04:28;7.45;;;4.70;;
70866;SDS011;58487;53.474;49.470;2023-05-29T12:06:54;8.40;;;4.80;;
70866;SDS011;58487;53.474;49.470;2023-05-29T12:09:27;7.47;;;5.13;;
70866;SDS011;58487;53.474;49.470;2023-05-29T12:11:54;8.00;;;4.97;;
70866;SDS011;58487;53.474;49.470;2023-05-29T12:14:30;12.52;;;4.80;;
70866;SDS011;58487;53.474;49.470;2023-05-29T12:16:56;9.77;;;4.87;;
70866;SDS011;58487;53.474;49.470;2023-05-29T12:19:22;7.67;;;4.90;;
70866;SDS011;58487;53.474;49.470;2023-05-29T12:21:48;6.30;;;4.35;;
70866;SDS011;58487;53.474;49.470;2023-05-29T12:24:14;9.65;;;5.10;;
70866;SDS011;58487;53.474;49.470;2023-05-29T12:26:43;7.13;;;4.68;;
70866;SDS011;58487;53.474;49.470;2023-05-29T12:29:09;6.70;;;4.80;;
70866;SDS011;58487;53.474;49.470;2023-05-29T12:31:35;10.63;;;5.05;;
70866;SDS011;58487;53.474;49.470;2023-05-29T12:34:02;8.20;;;5.03;;
70866;SDS011;58487;53.474;49.470;2023-05-29T12:36:33;7.38;;;4.65;;
70866;SDS011;58487;53.474;49.470;2023-05-29T12:39:00;8.77;;;4.80;;
70866;SDS011;58487;53.474;49.470;2023-05-29T12:41:34;9.60;;;5.20;;
70866;SDS011;58487;53.474;49.470;2023-05-29T12:44:02;7.20;;;5.03;;
70866;SDS011;58487;53.474;49.470;2023-05-29T12:46:34;6.55;;;4.60;;
70866;SDS011;58487;53.474;49.470;2023-05-29T12:49:12;7.78;;;4.82;;
70866;SDS011;58487;53.474;49.470;2023-05-29T12:51:43;7.63;;;4.95;;
70866;SDS011;58487;53.474;49.470;2023-05-29T12:54:13;7.20;;;5.18;;
70866;SDS011;58487;53.474;49.470;2023-05-29T12:56:40;8.02;;;4.80;;
70866;SDS011;58487;53.474;49.470;2023-05-29T12:59:07;8.18;;;4.97;;
70866;SDS011;58487;53.474;49.470;2023-05-29T13:01:33;6.97;;;4.90;;
70866;SDS011;58487;53.474;49.470;2023-05-29T13:04:00;10.37;;;4.87;;
70866;SDS011;58487;53.474;49.470;2023-05-29T13:06:26;8.45;;;4.95;;
70866;SDS011;58487;53.474;49.470;2023-05-29T13:08:52;8.90;;;4.60;;
70866;SDS011;58487;53.474;49.470;2023-05-29T13:11:18;7.38;;;4.65;;
70866;SDS011;58487;53.474;49.470;2023-05-29T13:13:45;7.63;;;4.47;;
70866;SDS011;58487;53.474;49.470;2023-05-29T13:16:12;8.07;;;4.85;;
70866;SDS011;58487;53.474;49.470;2023-05-29T13:18:38;7.90;;;4.55;;
70866;SDS011;58487;53.474;49.470;2023-05-29T13:21:04;11.23;;;7.70;;
70866;SDS011;58487;53.474;49.470;2023-05-29T13:23:31;8.82;;;5.15;;
70866;SDS011;58487;53.474;49.470;2023-05-29T13:25:57;7.35;;;4.90;;
70866;SDS011;58487;53.474;49.470;2023-05-29T13:28:23;8.57;;;4.45;;
70866;SDS011;58487;53.474;49.470;2023-05-29T13:30:49;7.32;;;4.50;;
70866;SDS011;58487;53.474;49.470;2023-05-29T13:33:15;7.18;;;4.88;;
70866;SDS011;58487;53.474;49.470;2023-05-29T13:35:41;8.15;;;4.28;;
70866;SDS011;58487;53.474;49.470;2023-05-29T13:38:08;9.10;;;4.00;;
70866;SDS011;58487;53.474;49.470;2023-05-29T13:40:34;8.73;;;4.57;;
70866;SDS011;58487;53.474;49.470;2023-05-29T13:43:01;6.50;;;4.20;;
70866;SDS011;58487;53.474;49.470;2023-05-29T13:45:27;6.93;;;4.55;;
70866;SDS011;58487;53.474;49.470;2023-05-29T13:47:53;7.78;;;4.50;;
70866;SDS011;58487;53.474;49.470;2023-05-29T13:50:20;9.88;;;3.63;;
70866;SDS011;58487;53.474;49.470;2023-05-29T13:52:49;6.43;;;3.60;;
70866;SDS011;58487;53.474;49.470;2023-05-29T13:55:16;11.80;;;3.78;;
70866;SDS011;58487;53.474;49.470;2023-05-29T13:57:42;7.53;;;3.30;;
70866;SDS011;58487;53.474;49.470;2023-05-29T14:00:11;9.70;;;3.80;;
70866;SDS011;58487;53.474;49.470;2023-05-29T14:02:38;7.53;;;3.50;;
70866;SDS011;58487;53.474;49.470;2023-05-29T14:05:04;7.45;;;3.88;;
70866;SDS011;58487;53.474;49.470;2023-05-29T14:07:31;7.72;;;3.85;;
70866;SDS011;58487;53.474;49.470;2023-05-29T14:09:57;9.20;;;3.10;;
70866;SDS011;58487;53.474;49.470;2023-05-29T14:12:23;6.50;;;3.47;;
70866;SDS011;58487;53.474;49.470;2023-05-29T14:14:49;6.67;;;3.23;;
70866;SDS011;58487;53.474;49.470;2023-05-29T14:17:16;8.33;;;3.60;;
70866;SDS011;58487;53.474;49.470;2023-05-29T14:19:42;7.57;;;3.33;;
70866;SDS011;58487;53.474;49.470;2023-05-29T14:22:11;8.57;;;3.30;;
70866;SDS011;58487;53.474;49.470;2023-05-29T14:24:37;8.10;;;3.17;;
70866;SDS011;58487;53.474;49.470;2023-05-29T14:27:03;5.68;;;3.20;;
70866;SDS011;58487;53.474;49.470;2023-05-29T14:29:29;7.57;;;3.42;;
70866;SDS011;58487;53.474;49.470;2023-05-29T14:31:55;7.53;;;3.30;;
70866;SDS011;58487;53.474;49.470;2023-05-29T14:34:21;9.10;;;3.47;;
70866;SDS011;58487;53.474;49.470;2023-05-29T14:36:47;7.53;;;3.38;;
70866;SDS011;58487;53.474;49.470;2023-05-29T14:39:14;8.35;;;3.45;;
70866;SDS011;58487;53.474;49.470;2023-05-29T14:41:40;8.25;;;3.28;;
70866;SDS011;58487;53.474;49.470;2023-05-29T14:44:06;7.30;;;3.10;;
70866;SDS011;58487;53.474;49.470;2023-05-29T14:46:32;8.07;;;3.17;;
70866;SDS011;58487;53.474;49.470;2023-05-29T14:48:58;5.97;;;3.30;;
70866;SDS011;58487;53.474;49.470;2023-05-29T14:51:25;7.10;;;2.92;;
70866;SDS011;58487;53.474;49.470;2023-05-29T14:53:51;7.35;;;3.00;;
70866;SDS011;58487;53.474;49.470;2023-05-29T14:56:17;8.15;;;3.03;;
70866;SDS011;58487;53.474;49.470;2023-05-29T14:58:44;8.33;;;2.93;;
70866;SDS011;58487;53.474;49.470;2023-05-29T15:01:11;7.70;;;2.80;;
70866;SDS011;58487;53.474;49.470;2023-05-29T15:03:37;6.32;;;2.85;;
70866;SDS011;58487;53.474;49.470;2023-05-29T15:06:03;9.15;;;2.90;;
70866;SDS011;58487;53.474;49.470;2023-05-29T15:08:29;5.45;;;2.90;;